sensor_id;sensor_type;location;lat;lon;timestamp;P1;durP1;ratioP1;P2;durP2;ratioP2
1949;SDS011;975;48.760;9.152;2023-02-26T00:02:23;3.15;;;1.27;;
1949;SDS011;975;48.760;9.152;2023-02-26T00:04:51;3.03;;;1.35;;
1949;SDS011;975;48.760;9.152;2023-02-26T00:07:18;6.55;;;1.55;;
1949;SDS011;975;48.760;9.152;2023-02-26T00:09:46;3.55;;;1.42;;
1949;SDS011;975;48.760;9.152;2023-02-26T00:12:14;3.55;;;1.50;;
1949;SDS011;975;48.760;9.152;2023-02-26T00:14:41;5.03;;;1.20;;
1949;SDS011;975;48.760;9.152;2023-02-26T00:17:19;1.90;;;1.40;;
1949;SDS011;975;48.760;9.152;2023-02-26T00:19:58;3.50;;;1.40;;
1949;SDS011;975;48.760;9.152;2023-02-26T00:22:26;4.50;;;1.50;;
1949;SDS011;975;48.760;9.152;2023-02-26T00:24:53;3.35;;;1.27;;
1949;SDS011;975;48.760;9.152;2023-02-26T00:27:21;3.13;;;1.23;;
1949;SDS011;975;48.760;9.152;2023-02-26T00:29:49;6.85;;;1.65;;
1949;SDS011;975;48.760;9.152;2023-02-26T00:32:18;2.97;;;1.40;;
1949;SDS011;975;48.760;9.152;2023-02-26T00:34:51;2.20;;;1.20;;
1949;SDS011;975;48.760;9.152;2023-02-26T00:37:25;5.90;;;2.00;;
1949;SDS011;975;48.760;9.152;2023-02-26T00:39:57;1.80;;;1.10;;
1949;SDS011;975;48.760;9.152;2023-02-26T00:42:29;3.75;;;1.48;;
1949;SDS011;975;48.760;9.152;2023-02-26T00:44:57;3.45;;;1.38;;
1949;SDS011;975;48.760;9.152;2023-02-26T00:47:35;3.28;;;1.40;;
1949;SDS011;975;48.760;9.152;2023-02-26T00:50:06;5.63;;;1.67;;
1949;SDS011;975;48.760;9.152;2023-02-26T00:52:40;3.15;;;1.33;;
1949;SDS011;975;48.760;9.152;2023-02-26T00:55:13;6.38;;;1.23;;
1949;SDS011;975;48.760;9.152;2023-02-26T00:57:40;2.53;;;1.40;;
1949;SDS011;975;48.760;9.152;2023-02-26T01:00:09;6.13;;;1.45;;
1949;SDS011;975;48.760;9.152;2023-02-26T01:02:38;2.72;;;1.30;;
1949;SDS011;975;48.760;9.152;2023-02-26T01:05:07;4.15;;;1.30;;
1949;SDS011;975;48.760;9.152;2023-02-26T01:07:36;3.95;;;1.33;;
1949;SDS011;975;48.760;9.152;2023-02-26T01:10:07;5.03;;;1.17;;
1949;SDS011;975;48.760;9.152;2023-02-26T01:12:35;6.90;;;1.17;;
1949;SDS011;975;48.760;9.152;2023-02-26T01:15:04;2.75;;;1.02;;
1949;SDS011;975;48.760;9.152;2023-02-26T01:17:33;6.32;;;1.30;;
1949;SDS011;975;48.760;9.152;2023-02-26T01:20:07;2.83;;;1.20;;
1949;SDS011;975;48.760;9.152;2023-02-26T01:22:36;2.53;;;1.23;;
1949;SDS011;975;48.760;9.152;2023-02-26T01:25:07;2.03;;;1.40;;
1949;SDS011;975;48.760;9.152;2023-02-26T01:27:35;5.50;;;1.35;;
1949;SDS011;975;48.760;9.152;2023-02-26T01:30:06;4.55;;;1.20;;
1949;SDS011;975;48.760;9.152;2023-02-26T01:32:40;2.20;;;1.35;;
1949;SDS011;975;48.760;9.152;2023-02-26T01:35:12;4.00;;;1.25;;
1949;SDS011;975;48.760;9.152;2023-02-26T01:37:58;3.00;;;1.27;;
1949;SDS011;975;48.760;9.152;2023-02-26T01:40:45;5.15;;;1.60;;
1949;SDS011;975;48.760;9.152;2023-02-26T01:43:18;3.35;;;1.35;;
1949;SDS011;975;48.760;9.152;2023-02-26T01:45:51;3.53;;;1.40;;
1949;SDS011;975;48.760;9.152;2023-02-26T01:48:23;2.58;;;1.35;;
1949;SDS011;975;48.760;9.152;2023-02-26T01:50:57;2.50;;;1.20;;
1949;SDS011;975;48.760;9.152;2023-02-26T01:53:25;5.18;;;1.50;;
1949;SDS011;975;48.760;9.152;2023-02-26T01:55:56;2.25;;;0.93;;
1949;SDS011;975;48.760;9.152;2023-02-26T01:58:24;2.15;;;1.45;;
1949;SDS011;975;48.760;9.152;2023-02-26T02:00:53;2.42;;;1.42;;
1949;SDS011;975;48.760;9.152;2023-02-26T02:03:21;3.25;;;1.25;;
1949;SDS011;975;48.760;9.152;2023-02-26T02:05:51;2.53;;;1.02;;
1949;SDS011;975;48.760;9.152;2023-02-26T02:08:24;2.08;;;0.77;;
1949;SDS011;975;48.760;9.152;2023-02-26T02:10:52;1.65;;;0.90;;
1949;SDS011;975;48.760;9.152;2023-02-26T02:13:32;1.92;;;1.13;;
1949;SDS011;975;48.760;9.152;2023-02-26T02:16:06;6.75;;;1.30;;
1949;SDS011;975;48.760;9.152;2023-02-26T02:18:45;5.28;;;1.13;;
1949;SDS011;975;48.760;9.152;2023-02-26T02:21:22;2.42;;;1.10;;
1949;SDS011;975;48.760;9.152;2023-02-26T02:23:59;1.15;;;0.63;;
1949;SDS011;975;48.760;9.152;2023-02-26T02:26:43;6.60;;;1.20;;
1949;SDS011;975;48.760;9.152;2023-02-26T02:29:18;2.30;;;1.20;;
1949;SDS011;975;48.760;9.152;2023-02-26T02:31:52;1.77;;;1.38;;
1949;SDS011;975;48.760;9.152;2023-02-26T02:34:32;4.32;;;1.67;;
1949;SDS011;975;48.760;9.152;2023-02-26T02:37:01;0.93;;;0.63;;
1949;SDS011;975;48.760;9.152;2023-02-26T02:42:02;3.83;;;1.33;;
1949;SDS011;975;48.760;9.152;2023-02-26T02:44:31;3.60;;;1.38;;
1949;SDS011;975;48.760;9.152;2023-02-26T02:47:01;2.67;;;1.20;;
1949;SDS011;975;48.760;9.152;2023-02-26T02:49:31;2.85;;;1.10;;
1949;SDS011;975;48.760;9.152;2023-02-26T02:54:31;3.95;;;1.10;;
1949;SDS011;975;48.760;9.152;2023-02-26T02:57:03;2.63;;;1.30;;
1949;SDS011;975;48.760;9.152;2023-02-26T02:59:34;2.65;;;1.48;;
1949;SDS011;975;48.760;9.152;2023-02-26T03:02:05;4.15;;;0.88;;
1949;SDS011;975;48.760;9.152;2023-02-26T03:04:40;1.45;;;0.98;;
1949;SDS011;975;48.760;9.152;2023-02-26T03:07:08;3.78;;;1.05;;
1949;SDS011;975;48.760;9.152;2023-02-26T03:09:42;4.93;;;1.40;;
1949;SDS011;975;48.760;9.152;2023-02-26T03:12:09;5.43;;;1.63;;
1949;SDS011;975;48.760;9.152;2023-02-26T03:14:40;6.43;;;1.67;;
1949;SDS011;975;48.760;9.152;2023-02-26T03:17:16;5.70;;;1.48;;
1949;SDS011;975;48.760;9.152;2023-02-26T03:19:48;3.28;;;1.38;;
1949;SDS011;975;48.760;9.152;2023-02-26T03:22:28;2.88;;;1.42;;
1949;SDS011;975;48.760;9.152;2023-02-26T03:24:59;3.25;;;1.20;;
1949;SDS011;975;48.760;9.152;2023-02-26T03:27:30;2.25;;;1.27;;
1949;SDS011;975;48.760;9.152;2023-02-26T03:30:03;3.22;;;1.25;;
1949;SDS011;975;48.760;9.152;2023-02-26T03:32:35;3.55;;;1.60;;
1949;SDS011;975;48.760;9.152;2023-02-26T03:35:11;1.85;;;1.23;;
1949;SDS011;975;48.760;9.152;2023-02-26T03:37:47;4.70;;;1.52;;
1949;SDS011;975;48.760;9.152;2023-02-26T03:40:17;3.80;;;1.30;;
1949;SDS011;975;48.760;9.152;2023-02-26T03:42:50;3.05;;;1.30;;
1949;SDS011;975;48.760;9.152;2023-02-26T03:45:20;3.70;;;1.30;;
1949;SDS011;975;48.760;9.152;2023-02-26T03:47:51;3.75;;;1.00;;
1949;SDS011;975;48.760;9.152;2023-02-26T03:50:20;4.28;;;1.30;;
1949;SDS011;975;48.760;9.152;2023-02-26T03:52:48;2.53;;;1.20;;
1949;SDS011;975;48.760;9.152;2023-02-26T03:55:18;4.57;;;1.70;;
1949;SDS011;975;48.760;9.152;2023-02-26T03:57:47;1.77;;;1.48;;
1949;SDS011;975;48.760;9.152;2023-02-26T04:00:15;2.35;;;1.20;;
1949;SDS011;975;48.760;9.152;2023-02-26T04:02:46;5.20;;;1.42;;
1949;SDS011;975;48.760;9.152;2023-02-26T04:05:19;2.97;;;1.10;;
1949;SDS011;975;48.760;9.152;2023-02-26T04:07:48;3.17;;;1.33;;
1949;SDS011;975;48.760;9.152;2023-02-26T04:10:16;6.95;;;1.75;;
1949;SDS011;975;48.760;9.152;2023-02-26T04:12:47;6.18;;;1.40;;
1949;SDS011;975;48.760;9.152;2023-02-26T04:15:20;3.42;;;1.23;;
1949;SDS011;975;48.760;9.152;2023-02-26T04:17:48;1.92;;;1.23;;
1949;SDS011;975;48.760;9.152;2023-02-26T04:20:15;3.20;;;1.27;;
1949;SDS011;975;48.760;9.152;2023-02-26T04:22:47;4.13;;;1.50;;
1949;SDS011;975;48.760;9.152;2023-02-26T04:25:14;4.00;;;1.40;;
1949;SDS011;975;48.760;9.152;2023-02-26T04:27:42;4.93;;;2.33;;
1949;SDS011;975;48.760;9.152;2023-02-26T04:30:10;3.53;;;1.65;;
1949;SDS011;975;48.760;9.152;2023-02-26T04:32:37;5.30;;;1.30;;
1949;SDS011;975;48.760;9.152;2023-02-26T04:35:08;7.82;;;1.50;;
1949;SDS011;975;48.760;9.152;2023-02-26T04:37:46;5.07;;;1.17;;
1949;SDS011;975;48.760;9.152;2023-02-26T04:40:15;2.97;;;1.40;;
1949;SDS011;975;48.760;9.152;2023-02-26T04:42:45;3.00;;;1.50;;
1949;SDS011;975;48.760;9.152;2023-02-26T04:45:15;4.20;;;1.33;;
1949;SDS011;975;48.760;9.152;2023-02-26T04:47:43;3.30;;;1.20;;
1949;SDS011;975;48.760;9.152;2023-02-26T04:50:13;3.03;;;1.30;;
1949;SDS011;975;48.760;9.152;2023-02-26T04:52:41;1.92;;;1.38;;
1949;SDS011;975;48.760;9.152;2023-02-26T04:55:09;6.10;;;1.45;;
1949;SDS011;975;48.760;9.152;2023-02-26T04:57:37;7.45;;;1.58;;
1949;SDS011;975;48.760;9.152;2023-02-26T05:00:08;3.10;;;1.35;;
1949;SDS011;975;48.760;9.152;2023-02-26T05:02:39;2.28;;;1.35;;
1949;SDS011;975;48.760;9.152;2023-02-26T05:05:14;2.60;;;1.27;;
1949;SDS011;975;48.760;9.152;2023-02-26T05:07:42;2.72;;;1.30;;
1949;SDS011;975;48.760;9.152;2023-02-26T05:10:10;1.75;;;1.08;;
1949;SDS011;975;48.760;9.152;2023-02-26T05:12:39;4.35;;;1.30;;
1949;SDS011;975;48.760;9.152;2023-02-26T05:15:09;3.60;;;1.27;;
1949;SDS011;975;48.760;9.152;2023-02-26T05:17:37;3.53;;;1.27;;
1949;SDS011;975;48.760;9.152;2023-02-26T05:20:05;5.38;;;1.83;;
1949;SDS011;975;48.760;9.152;2023-02-26T05:22:37;3.33;;;1.27;;
1949;SDS011;975;48.760;9.152;2023-02-26T05:25:05;5.07;;;1.50;;
1949;SDS011;975;48.760;9.152;2023-02-26T05:27:39;7.13;;;1.30;;
1949;SDS011;975;48.760;9.152;2023-02-26T05:30:07;1.63;;;1.13;;
1949;SDS011;975;48.760;9.152;2023-02-26T05:32:36;3.83;;;1.30;;
1949;SDS011;975;48.760;9.152;2023-02-26T05:35:04;3.50;;;1.40;;
1949;SDS011;975;48.760;9.152;2023-02-26T05:37:40;5.22;;;1.20;;
1949;SDS011;975;48.760;9.152;2023-02-26T05:40:08;4.82;;;1.67;;
1949;SDS011;975;48.760;9.152;2023-02-26T05:42:36;3.33;;;1.50;;
1949;SDS011;975;48.760;9.152;2023-02-26T05:45:05;3.00;;;1.23;;
1949;SDS011;975;48.760;9.152;2023-02-26T05:47:33;2.42;;;1.20;;
1949;SDS011;975;48.760;9.152;2023-02-26T05:50:01;3.85;;;1.80;;
1949;SDS011;975;48.760;9.152;2023-02-26T05:52:33;4.68;;;1.58;;
1949;SDS011;975;48.760;9.152;2023-02-26T05:55:07;3.20;;;1.58;;
1949;SDS011;975;48.760;9.152;2023-02-26T05:57:34;3.55;;;1.58;;
1949;SDS011;975;48.760;9.152;2023-02-26T06:00:14;2.40;;;1.50;;
1949;SDS011;975;48.760;9.152;2023-02-26T06:02:42;3.28;;;0.70;;
1949;SDS011;975;48.760;9.152;2023-02-26T06:05:09;1.27;;;0.85;;
1949;SDS011;975;48.760;9.152;2023-02-26T06:07:37;4.85;;;1.00;;
1949;SDS011;975;48.760;9.152;2023-02-26T06:10:08;4.38;;;1.45;;
1949;SDS011;975;48.760;9.152;2023-02-26T06:12:36;4.38;;;1.33;;
1949;SDS011;975;48.760;9.152;2023-02-26T06:15:09;6.05;;;1.00;;
1949;SDS011;975;48.760;9.152;2023-02-26T06:17:39;3.22;;;1.50;;
1949;SDS011;975;48.760;9.152;2023-02-26T06:20:10;2.25;;;1.27;;
1949;SDS011;975;48.760;9.152;2023-02-26T06:22:38;3.95;;;1.08;;
1949;SDS011;975;48.760;9.152;2023-02-26T06:25:06;5.05;;;1.13;;
1949;SDS011;975;48.760;9.152;2023-02-26T06:27:35;1.88;;;1.38;;
1949;SDS011;975;48.760;9.152;2023-02-26T06:30:03;6.78;;;1.60;;
1949;SDS011;975;48.760;9.152;2023-02-26T06:32:38;5.20;;;1.38;;
1949;SDS011;975;48.760;9.152;2023-02-26T06:35:06;0.98;;;0.80;;
1949;SDS011;975;48.760;9.152;2023-02-26T06:37:37;4.68;;;1.73;;
1949;SDS011;975;48.760;9.152;2023-02-26T06:40:14;5.38;;;1.50;;
1949;SDS011;975;48.760;9.152;2023-02-26T06:42:42;3.58;;;1.33;;
1949;SDS011;975;48.760;9.152;2023-02-26T06:45:16;3.88;;;1.42;;
1949;SDS011;975;48.760;9.152;2023-02-26T06:48:00;4.82;;;2.08;;
1949;SDS011;975;48.760;9.152;2023-02-26T06:50:27;4.88;;;1.73;;
1949;SDS011;975;48.760;9.152;2023-02-26T06:52:55;7.07;;;2.38;;
1949;SDS011;975;48.760;9.152;2023-02-26T06:55:23;3.88;;;1.50;;
1949;SDS011;975;48.760;9.152;2023-02-26T06:57:56;2.88;;;1.33;;
1949;SDS011;975;48.760;9.152;2023-02-26T07:00:24;4.22;;;1.48;;
1949;SDS011;975;48.760;9.152;2023-02-26T07:02:51;9.77;;;1.58;;
1949;SDS011;975;48.760;9.152;2023-02-26T07:05:20;3.15;;;1.40;;
1949;SDS011;975;48.760;9.152;2023-02-26T07:07:48;4.20;;;1.73;;
1949;SDS011;975;48.760;9.152;2023-02-26T07:10:15;3.30;;;1.92;;
1949;SDS011;975;48.760;9.152;2023-02-26T07:12:43;3.92;;;1.90;;
1949;SDS011;975;48.760;9.152;2023-02-26T07:15:10;8.75;;;1.70;;
1949;SDS011;975;48.760;9.152;2023-02-26T07:17:38;2.78;;;1.08;;
1949;SDS011;975;48.760;9.152;2023-02-26T07:20:06;4.22;;;1.65;;
1949;SDS011;975;48.760;9.152;2023-02-26T07:22:36;2.75;;;1.45;;
1949;SDS011;975;48.760;9.152;2023-02-26T07:25:03;2.85;;;1.27;;
1949;SDS011;975;48.760;9.152;2023-02-26T07:27:34;4.75;;;1.98;;
1949;SDS011;975;48.760;9.152;2023-02-26T07:30:02;2.88;;;1.60;;
1949;SDS011;975;48.760;9.152;2023-02-26T07:32:30;4.18;;;2.03;;
1949;SDS011;975;48.760;9.152;2023-02-26T07:35:04;6.22;;;1.60;;
1949;SDS011;975;48.760;9.152;2023-02-26T07:37:36;3.60;;;1.23;;
1949;SDS011;975;48.760;9.152;2023-02-26T07:40:04;3.03;;;1.50;;
1949;SDS011;975;48.760;9.152;2023-02-26T07:42:35;3.63;;;1.50;;
1949;SDS011;975;48.760;9.152;2023-02-26T07:45:03;4.95;;;1.13;;
1949;SDS011;975;48.760;9.152;2023-02-26T07:47:34;3.50;;;1.42;;
1949;SDS011;975;48.760;9.152;2023-02-26T07:50:02;8.05;;;1.40;;
1949;SDS011;975;48.760;9.152;2023-02-26T07:52:29;3.10;;;1.55;;
1949;SDS011;975;48.760;9.152;2023-02-26T07:54:58;2.53;;;1.30;;
1949;SDS011;975;48.760;9.152;2023-02-26T07:57:26;4.55;;;1.45;;
1949;SDS011;975;48.760;9.152;2023-02-26T07:59:53;2.63;;;1.42;;
1949;SDS011;975;48.760;9.152;2023-02-26T08:02:23;2.28;;;1.23;;
1949;SDS011;975;48.760;9.152;2023-02-26T08:04:54;7.10;;;1.27;;
1949;SDS011;975;48.760;9.152;2023-02-26T08:07:22;5.00;;;1.52;;
1949;SDS011;975;48.760;9.152;2023-02-26T08:09:49;4.20;;;1.50;;
1949;SDS011;975;48.760;9.152;2023-02-26T08:12:18;1.98;;;1.40;;
1949;SDS011;975;48.760;9.152;2023-02-26T08:14:48;3.22;;;1.38;;
1949;SDS011;975;48.760;9.152;2023-02-26T08:17:16;1.95;;;1.13;;
1949;SDS011;975;48.760;9.152;2023-02-26T08:19:46;5.30;;;1.40;;
1949;SDS011;975;48.760;9.152;2023-02-26T08:22:13;12.70;;;1.73;;
1949;SDS011;975;48.760;9.152;2023-02-26T08:24:47;4.35;;;1.40;;
1949;SDS011;975;48.760;9.152;2023-02-26T08:27:15;5.65;;;1.73;;
1949;SDS011;975;48.760;9.152;2023-02-26T08:29:44;3.60;;;1.20;;
1949;SDS011;975;48.760;9.152;2023-02-26T08:32:14;3.60;;;1.10;;
1949;SDS011;975;48.760;9.152;2023-02-26T08:34:43;4.15;;;1.45;;
1949;SDS011;975;48.760;9.152;2023-02-26T08:37:11;1.45;;;0.93;;
1949;SDS011;975;48.760;9.152;2023-02-26T08:39:38;3.53;;;1.02;;
1949;SDS011;975;48.760;9.152;2023-02-26T08:42:06;3.45;;;1.70;;
1949;SDS011;975;48.760;9.152;2023-02-26T08:44:34;2.10;;;1.17;;
1949;SDS011;975;48.760;9.152;2023-02-26T08:47:13;3.42;;;1.10;;
1949;SDS011;975;48.760;9.152;2023-02-26T08:49:41;2.75;;;0.85;;
1949;SDS011;975;48.760;9.152;2023-02-26T08:52:08;2.25;;;1.50;;
1949;SDS011;975;48.760;9.152;2023-02-26T08:54:36;2.75;;;1.55;;
1949;SDS011;975;48.760;9.152;2023-02-26T08:57:03;2.42;;;0.93;;
1949;SDS011;975;48.760;9.152;2023-02-26T08:59:30;3.95;;;1.13;;
1949;SDS011;975;48.760;9.152;2023-02-26T09:01:58;6.05;;;1.52;;
1949;SDS011;975;48.760;9.152;2023-02-26T09:04:27;2.42;;;1.02;;
1949;SDS011;975;48.760;9.152;2023-02-26T09:06:54;5.13;;;1.73;;
1949;SDS011;975;48.760;9.152;2023-02-26T09:09:21;1.60;;;1.10;;
1949;SDS011;975;48.760;9.152;2023-02-26T09:11:49;5.05;;;1.33;;
1949;SDS011;975;48.760;9.152;2023-02-26T09:14:16;4.50;;;1.48;;
1949;SDS011;975;48.760;9.152;2023-02-26T09:16:44;2.75;;;1.45;;
1949;SDS011;975;48.760;9.152;2023-02-26T09:19:11;4.88;;;1.48;;
1949;SDS011;975;48.760;9.152;2023-02-26T09:21:40;2.50;;;1.02;;
1949;SDS011;975;48.760;9.152;2023-02-26T09:24:08;5.20;;;1.20;;
1949;SDS011;975;48.760;9.152;2023-02-26T09:26:35;3.63;;;1.10;;
1949;SDS011;975;48.760;9.152;2023-02-26T09:29:03;1.92;;;1.15;;
1949;SDS011;975;48.760;9.152;2023-02-26T09:31:31;2.63;;;1.20;;
1949;SDS011;975;48.760;9.152;2023-02-26T09:33:58;3.20;;;1.15;;
1949;SDS011;975;48.760;9.152;2023-02-26T09:36:26;3.58;;;1.50;;
1949;SDS011;975;48.760;9.152;2023-02-26T09:38:56;2.33;;;1.05;;
1949;SDS011;975;48.760;9.152;2023-02-26T09:41:25;2.10;;;1.08;;
1949;SDS011;975;48.760;9.152;2023-02-26T09:43:58;2.55;;;1.10;;
1949;SDS011;975;48.760;9.152;2023-02-26T09:46:29;4.25;;;1.27;;
1949;SDS011;975;48.760;9.152;2023-02-26T09:49:01;3.50;;;1.40;;
1949;SDS011;975;48.760;9.152;2023-02-26T09:51:30;5.28;;;1.48;;
1949;SDS011;975;48.760;9.152;2023-02-26T09:54:00;1.60;;;1.05;;
1949;SDS011;975;48.760;9.152;2023-02-26T09:56:32;2.72;;;1.02;;
1949;SDS011;975;48.760;9.152;2023-02-26T09:59:01;6.10;;;1.50;;
1949;SDS011;975;48.760;9.152;2023-02-26T10:01:30;1.90;;;1.00;;
1949;SDS011;975;48.760;9.152;2023-02-26T10:04:02;3.33;;;1.17;;
1949;SDS011;975;48.760;9.152;2023-02-26T10:06:31;2.85;;;1.05;;
1949;SDS011;975;48.760;9.152;2023-02-26T10:11:48;4.80;;;1.35;;
1949;SDS011;975;48.760;9.152;2023-02-26T10:14:18;4.45;;;1.05;;
1949;SDS011;975;48.760;9.152;2023-02-26T10:16:48;2.38;;;1.05;;
1949;SDS011;975;48.760;9.152;2023-02-26T10:19:18;2.00;;;1.42;;
1949;SDS011;975;48.760;9.152;2023-02-26T10:21:47;4.43;;;1.52;;
1949;SDS011;975;48.760;9.152;2023-02-26T10:24:17;5.40;;;1.30;;
1949;SDS011;975;48.760;9.152;2023-02-26T10:26:49;2.05;;;1.23;;
1949;SDS011;975;48.760;9.152;2023-02-26T10:29:19;2.33;;;1.20;;
1949;SDS011;975;48.760;9.152;2023-02-26T10:31:51;2.95;;;1.17;;
1949;SDS011;975;48.760;9.152;2023-02-26T10:34:23;1.73;;;0.90;;
1949;SDS011;975;48.760;9.152;2023-02-26T10:36:53;1.80;;;1.30;;
1949;SDS011;975;48.760;9.152;2023-02-26T10:39:31;2.70;;;1.35;;
1949;SDS011;975;48.760;9.152;2023-02-26T10:42:01;2.25;;;0.95;;
1949;SDS011;975;48.760;9.152;2023-02-26T10:44:33;2.83;;;1.35;;
1949;SDS011;975;48.760;9.152;2023-02-26T10:47:13;2.70;;;1.08;;
1949;SDS011;975;48.760;9.152;2023-02-26T10:49:50;3.95;;;1.38;;
1949;SDS011;975;48.760;9.152;2023-02-26T10:52:22;1.73;;;1.30;;
1949;SDS011;975;48.760;9.152;2023-02-26T10:54:55;4.47;;;2.15;;
1949;SDS011;975;48.760;9.152;2023-02-26T10:57:30;4.20;;;1.90;;
1949;SDS011;975;48.760;9.152;2023-02-26T11:00:17;2.53;;;1.52;;
1949;SDS011;975;48.760;9.152;2023-02-26T11:02:45;2.10;;;1.23;;
1949;SDS011;975;48.760;9.152;2023-02-26T11:05:14;3.40;;;1.40;;
1949;SDS011;975;48.760;9.152;2023-02-26T11:07:42;3.15;;;1.00;;
1949;SDS011;975;48.760;9.152;2023-02-26T11:10:12;2.83;;;1.42;;
1949;SDS011;975;48.760;9.152;2023-02-26T11:12:47;2.17;;;1.33;;
1949;SDS011;975;48.760;9.152;2023-02-26T11:15:21;1.98;;;1.10;;
1949;SDS011;975;48.760;9.152;2023-02-26T11:17:53;1.95;;;1.00;;
1949;SDS011;975;48.760;9.152;2023-02-26T11:20:28;3.13;;;1.02;;
1949;SDS011;975;48.760;9.152;2023-02-26T11:22:56;2.40;;;0.98;;
1949;SDS011;975;48.760;9.152;2023-02-26T11:25:27;2.03;;;1.20;;
1949;SDS011;975;48.760;9.152;2023-02-26T11:27:57;1.15;;;0.82;;
1949;SDS011;975;48.760;9.152;2023-02-26T11:30:31;1.85;;;1.05;;
1949;SDS011;975;48.760;9.152;2023-02-26T11:33:03;2.20;;;1.08;;
1949;SDS011;975;48.760;9.152;2023-02-26T11:35:34;1.80;;;1.33;;
1949;SDS011;975;48.760;9.152;2023-02-26T11:38:01;2.15;;;0.82;;
1949;SDS011;975;48.760;9.152;2023-02-26T11:40:33;3.35;;;1.02;;
1949;SDS011;975;48.760;9.152;2023-02-26T11:43:04;2.10;;;1.13;;
1949;SDS011;975;48.760;9.152;2023-02-26T11:45:34;1.40;;;0.95;;
1949;SDS011;975;48.760;9.152;2023-02-26T11:48:03;1.85;;;1.10;;
1949;SDS011;975;48.760;9.152;2023-02-26T11:50:41;2.47;;;0.90;;
1949;SDS011;975;48.760;9.152;2023-02-26T11:53:15;1.55;;;1.13;;
1949;SDS011;975;48.760;9.152;2023-02-26T11:55:43;2.92;;;1.27;;
1949;SDS011;975;48.760;9.152;2023-02-26T11:58:17;1.98;;;0.88;;
1949;SDS011;975;48.760;9.152;2023-02-26T12:00:48;0.80;;;0.68;;
1949;SDS011;975;48.760;9.152;2023-02-26T12:03:16;2.58;;;1.20;;
1949;SDS011;975;48.760;9.152;2023-02-26T12:05:43;2.63;;;0.70;;
1949;SDS011;975;48.760;9.152;2023-02-26T12:08:22;2.00;;;1.10;;
1949;SDS011;975;48.760;9.152;2023-02-26T12:14:00;3.35;;;1.00;;
1949;SDS011;975;48.760;9.152;2023-02-26T12:16:38;1.25;;;0.77;;
1949;SDS011;975;48.760;9.152;2023-02-26T12:21:43;1.15;;;0.75;;
1949;SDS011;975;48.760;9.152;2023-02-26T12:24:26;3.42;;;1.13;;
1949;SDS011;975;48.760;9.152;2023-02-26T12:27:00;2.00;;;1.33;;
1949;SDS011;975;48.760;9.152;2023-02-26T12:29:40;2.83;;;0.90;;
1949;SDS011;975;48.760;9.152;2023-02-26T12:32:14;1.65;;;0.98;;
1949;SDS011;975;48.760;9.152;2023-02-26T12:34:56;2.88;;;0.90;;
1949;SDS011;975;48.760;9.152;2023-02-26T12:37:38;1.65;;;0.80;;
1949;SDS011;975;48.760;9.152;2023-02-26T12:40:16;1.27;;;0.95;;
1949;SDS011;975;48.760;9.152;2023-02-26T12:42:58;1.15;;;0.82;;
1949;SDS011;975;48.760;9.152;2023-02-26T12:45:35;2.38;;;1.20;;
1949;SDS011;975;48.760;9.152;2023-02-26T12:48:28;2.70;;;0.73;;
1949;SDS011;975;48.760;9.152;2023-02-26T12:51:00;2.50;;;1.05;;
1949;SDS011;975;48.760;9.152;2023-02-26T12:53:39;3.65;;;1.05;;
1949;SDS011;975;48.760;9.152;2023-02-26T12:56:14;1.02;;;0.60;;
1949;SDS011;975;48.760;9.152;2023-02-26T12:59:02;1.92;;;0.95;;
1949;SDS011;975;48.760;9.152;2023-02-26T13:01:42;2.17;;;1.00;;
1949;SDS011;975;48.760;9.152;2023-02-26T13:04:21;2.65;;;0.88;;
1949;SDS011;975;48.760;9.152;2023-02-26T13:06:58;1.33;;;0.80;;
1949;SDS011;975;48.760;9.152;2023-02-26T13:09:31;3.85;;;0.88;;
1949;SDS011;975;48.760;9.152;2023-02-26T13:12:03;0.80;;;0.80;;
1949;SDS011;975;48.760;9.152;2023-02-26T13:14:38;1.75;;;0.60;;
1949;SDS011;975;48.760;9.152;2023-02-26T13:17:15;2.17;;;0.90;;
1949;SDS011;975;48.760;9.152;2023-02-26T13:19:45;1.63;;;0.77;;
1949;SDS011;975;48.760;9.152;2023-02-26T13:22:16;0.40;;;0.40;;
1949;SDS011;975;48.760;9.152;2023-02-26T13:24:47;2.08;;;1.00;;
1949;SDS011;975;48.760;9.152;2023-02-26T13:27:16;4.32;;;0.90;;
1949;SDS011;975;48.760;9.152;2023-02-26T13:29:44;0.93;;;0.73;;
1949;SDS011;975;48.760;9.152;2023-02-26T13:32:16;1.30;;;0.70;;
1949;SDS011;975;48.760;9.152;2023-02-26T13:34:47;1.10;;;0.77;;
1949;SDS011;975;48.760;9.152;2023-02-26T13:39:44;0.77;;;0.55;;
1949;SDS011;975;48.760;9.152;2023-02-26T13:42:20;2.50;;;0.98;;
1949;SDS011;975;48.760;9.152;2023-02-26T13:47:33;0.73;;;0.50;;
1949;SDS011;975;48.760;9.152;2023-02-26T13:50:24;0.68;;;0.50;;
1949;SDS011;975;48.760;9.152;2023-02-26T13:52:53;1.15;;;0.77;;
1949;SDS011;975;48.760;9.152;2023-02-26T13:55:37;0.80;;;0.70;;
1949;SDS011;975;48.760;9.152;2023-02-26T14:00:56;1.88;;;0.60;;
1949;SDS011;975;48.760;9.152;2023-02-26T14:03:30;3.25;;;0.80;;
1949;SDS011;975;48.760;9.152;2023-02-26T14:08:45;0.40;;;0.40;;
1949;SDS011;975;48.760;9.152;2023-02-26T14:14:05;1.58;;;0.57;;
1949;SDS011;975;48.760;9.152;2023-02-26T14:16:33;0.93;;;0.73;;
1949;SDS011;975;48.760;9.152;2023-02-26T14:19:04;0.82;;;0.70;;
1949;SDS011;975;48.760;9.152;2023-02-26T14:21:36;3.38;;;1.00;;
1949;SDS011;975;48.760;9.152;2023-02-26T14:24:12;2.25;;;1.00;;
1949;SDS011;975;48.760;9.152;2023-02-26T14:26:44;1.25;;;0.55;;
1949;SDS011;975;48.760;9.152;2023-02-26T14:29:16;1.35;;;0.60;;
1949;SDS011;975;48.760;9.152;2023-02-26T14:31:51;1.00;;;0.90;;
1949;SDS011;975;48.760;9.152;2023-02-26T14:34:22;1.20;;;0.70;;
1949;SDS011;975;48.760;9.152;2023-02-26T14:36:51;0.55;;;0.43;;
1949;SDS011;975;48.760;9.152;2023-02-26T14:39:24;1.42;;;0.98;;
1949;SDS011;975;48.760;9.152;2023-02-26T14:41:58;0.95;;;0.60;;
1949;SDS011;975;48.760;9.152;2023-02-26T14:44:30;2.63;;;0.70;;
1949;SDS011;975;48.760;9.152;2023-02-26T14:47:00;1.05;;;0.50;;
1949;SDS011;975;48.760;9.152;2023-02-26T14:49:31;1.50;;;0.90;;
1949;SDS011;975;48.760;9.152;2023-02-26T14:52:05;0.57;;;0.57;;
1949;SDS011;975;48.760;9.152;2023-02-26T14:57:28;0.80;;;0.57;;
1949;SDS011;975;48.760;9.152;2023-02-26T15:00:02;2.03;;;0.73;;
1949;SDS011;975;48.760;9.152;2023-02-26T15:02:39;0.93;;;0.60;;
1949;SDS011;975;48.760;9.152;2023-02-26T15:05:16;2.63;;;0.88;;
1949;SDS011;975;48.760;9.152;2023-02-26T15:07:59;0.93;;;0.57;;
1949;SDS011;975;48.760;9.152;2023-02-26T15:10:40;2.13;;;0.80;;
1949;SDS011;975;48.760;9.152;2023-02-26T15:13:15;1.02;;;0.50;;
1949;SDS011;975;48.760;9.152;2023-02-26T15:15:47;2.10;;;0.75;;
1949;SDS011;975;48.760;9.152;2023-02-26T15:18:30;1.13;;;0.70;;
1949;SDS011;975;48.760;9.152;2023-02-26T15:21:06;2.72;;;0.85;;
1949;SDS011;975;48.760;9.152;2023-02-26T15:23:40;2.40;;;0.77;;
1949;SDS011;975;48.760;9.152;2023-02-26T15:26:12;1.15;;;0.55;;
1949;SDS011;975;48.760;9.152;2023-02-26T15:28:41;1.20;;;0.77;;
1949;SDS011;975;48.760;9.152;2023-02-26T15:31:09;0.82;;;0.60;;
1949;SDS011;975;48.760;9.152;2023-02-26T15:33:37;4.30;;;0.90;;
1949;SDS011;975;48.760;9.152;2023-02-26T15:36:12;0.93;;;0.73;;
1949;SDS011;975;48.760;9.152;2023-02-26T15:38:40;2.92;;;1.00;;
1949;SDS011;975;48.760;9.152;2023-02-26T15:41:11;1.08;;;0.65;;
1949;SDS011;975;48.760;9.152;2023-02-26T15:43:39;1.27;;;0.60;;
1949;SDS011;975;48.760;9.152;2023-02-26T15:46:07;0.85;;;0.70;;
1949;SDS011;975;48.760;9.152;2023-02-26T15:48:35;1.08;;;0.50;;
1949;SDS011;975;48.760;9.152;2023-02-26T15:51:07;1.52;;;0.63;;
1949;SDS011;975;48.760;9.152;2023-02-26T15:53:37;1.23;;;0.60;;
1949;SDS011;975;48.760;9.152;2023-02-26T15:58:37;1.00;;;0.70;;
1949;SDS011;975;48.760;9.152;2023-02-26T16:01:13;2.88;;;0.77;;
1949;SDS011;975;48.760;9.152;2023-02-26T16:03:41;1.10;;;0.60;;
1949;SDS011;975;48.760;9.152;2023-02-26T16:06:10;2.30;;;0.82;;
1949;SDS011;975;48.760;9.152;2023-02-26T16:08:39;0.50;;;0.30;;
1949;SDS011;975;48.760;9.152;2023-02-26T16:11:07;1.90;;;1.00;;
1949;SDS011;975;48.760;9.152;2023-02-26T16:13:35;0.82;;;0.60;;
1949;SDS011;975;48.760;9.152;2023-02-26T16:16:04;2.53;;;0.75;;
1949;SDS011;975;48.760;9.152;2023-02-26T16:18:35;4.32;;;0.80;;
1949;SDS011;975;48.760;9.152;2023-02-26T16:21:04;1.35;;;0.80;;
1949;SDS011;975;48.760;9.152;2023-02-26T16:23:37;1.80;;;0.80;;
1949;SDS011;975;48.760;9.152;2023-02-26T16:26:07;1.70;;;0.88;;
1949;SDS011;975;48.760;9.152;2023-02-26T16:28:42;1.20;;;0.55;;